Time;durP1;ratioP1;P1;durP2;ratioP2;P2;SDS_P1;SDS_P2;PMS_P1;PMS_P2;Temp;Humidity;BMP_temperature;BMP_pressure;BME280_temperature;BME280_humidity;BME280_pressure;Samples;Min_cycle;Max_cycle;Signal;HPM_P1;HPM_P2
2022/04/07 00:01:33;;;;;;;1.73;1.63;;;11.40;40.30;;;;;;5084981;28;34143;-77
2022/04/07 00:03:59;;;;;;;1.70;1.58;;;11.40;40.10;;;;;;5085801;28;35390;-76
2022/04/07 00:06:25;;;;;;;1.50;1.40;;;11.40;40.30;;;;;;5085426;28;34191;-75
2022/04/07 00:08:51;;;;;;;1.70;1.52;;;11.40;40.20;;;;;;5086861;28;34073;-77
2022/04/07 00:11:17;;;;;;;2.20;1.27;;;11.40;40.20;;;;;;5072052;28;34069;-77
2022/04/07 00:13:43;;;;;;;1.63;1.40;;;11.40;40.60;;;;;;5106221;28;34912;-75
2022/04/07 00:16:09;;;;;;;3.17;1.92;;;11.40;40.70;;;;;;5088997;28;34373;-77
2022/04/07 00:18:35;;;;;;;2.47;1.63;;;11.40;40.60;;;;;;5107102;28;34082;-76
2022/04/07 00:21:02;;;;;;;1.48;1.35;;;11.40;40.70;;;;;;5106745;28;34429;-76
2022/04/07 00:23:28;;;;;;;1.55;1.45;;;11.40;40.90;;;;;;5088286;28;35909;-75
2022/04/07 00:25:54;;;;;;;1.85;1.60;;;11.40;40.50;;;;;;5107049;28;34092;-76
2022/04/07 00:28:20;;;;;;;2.13;1.25;;;11.40;40.80;;;;;;5089146;28;34193;-76
2022/04/07 00:30:46;;;;;;;1.65;1.45;;;11.40;40.80;;;;;;5106359;28;34091;-75
2022/04/07 00:33:12;;;;;;;1.40;1.30;;;11.40;40.80;;;;;;5106075;28;35156;-76
2022/04/07 00:35:38;;;;;;;2.58;1.17;;;11.40;40.80;;;;;;5107489;28;33992;-78
2022/04/07 00:38:04;;;;;;;2.13;1.17;;;11.40;43.00;;;;;;5072127;28;34066;-76
2022/04/07 00:40:30;;;;;;;1.00;1.00;;;11.30;41.10;;;;;;5088559;28;34053;-76
2022/04/07 00:42:56;;;;;;;1.13;1.00;;;11.40;41.00;;;;;;5087914;28;35726;-77
2022/04/07 00:45:24;;;;;;;1.40;1.00;;;11.30;41.30;;;;;;5088402;28;34499;-76
2022/04/07 00:47:51;;;;;;;1.05;0.95;;;11.30;42.60;;;;;;5088226;28;34133;-76
2022/04/07 00:50:19;;;;;;;1.35;0.85;;;11.30;41.50;;;;;;5088617;28;34339;-76
2022/04/07 00:52:52;;;;;;;1.10;0.90;;;11.30;41.20;;;;;;5106086;28;34919;-79
2022/04/07 00:55:19;;;;;;;1.60;1.00;;;11.30;42.10;;;;;;5087944;28;34128;-77
2022/04/07 00:57:46;;;;;;;0.77;0.77;;;11.30;41.20;;;;;;5088620;28;34151;-76
2022/04/07 01:00:13;;;;;;;1.10;0.93;;;11.30;42.10;;;;;;5071305;28;34351;-76
2022/04/07 01:02:40;;;;;;;1.15;0.88;;;11.30;41.50;;;;;;5087860;28;35792;-76
2022/04/07 01:05:08;;;;;;;1.00;0.90;;;11.30;41.50;;;;;;5071038;28;34128;-76
2022/04/07 01:07:39;;;;;;;1.00;1.00;;;11.30;41.80;;;;;;5087646;28;34072;-77
2022/04/07 01:10:07;;;;;;;1.30;1.00;;;11.20;43.10;;;;;;5088091;28;34676;-76
2022/04/07 01:12:34;;;;;;;1.23;1.00;;;11.20;42.50;;;;;;5087414;28;35618;-77
2022/04/07 01:15:02;;;;;;;1.20;1.00;;;11.00;44.70;;;;;;5106139;28;34072;-76
2022/04/07 01:17:29;;;;;;;1.27;0.90;;;11.10;43.80;;;;;;5070533;28;34129;-78
2022/04/07 01:19:55;;;;;;;4.28;1.00;;;11.00;43.20;;;;;;5070428;28;34160;-76
2022/04/07 01:22:22;;;;;;;1.00;1.00;;;11.00;44.10;;;;;;5105944;28;34177;-76
2022/04/07 01:24:48;;;;;;;1.50;1.40;;;10.90;44.30;;;;;;5087630;28;34140;-77
2022/04/07 01:27:16;;;;;;;1.10;1.00;;;10.90;44.40;;;;;;5088043;28;34146;-76
2022/04/07 01:29:42;;;;;;;1.13;1.13;;;10.80;45.50;;;;;;5072751;27;34368;-77
2022/04/07 01:32:14;;;;;;;1.30;1.17;;;10.90;44.60;;;;;;5106997;27;36094;-76
2022/04/07 01:34:41;;;;;;;0.95;0.93;;;10.90;44.70;;;;;;5090759;27;34249;-76
2022/04/07 01:37:08;;;;;;;1.90;1.27;;;10.90;44.70;;;;;;5107807;27;34169;-76
2022/04/07 01:39:36;;;;;;;1.77;1.10;;;10.90;45.30;;;;;;5091032;27;34119;-77
2022/04/07 01:42:03;;;;;;;1.95;1.48;;;10.90;45.00;;;;;;5073878;27;36446;-76
2022/04/07 01:44:30;;;;;;;1.95;1.20;;;10.90;44.70;;;;;;5126005;27;34074;-77
2022/04/07 01:46:57;;;;;;;0.98;0.90;;;10.90;45.20;;;;;;5108001;27;34335;-76
2022/04/07 01:49:24;;;;;;;1.55;1.45;;;10.80;45.00;;;;;;5090685;27;34520;-76
2022/04/07 01:51:50;;;;;;;1.77;1.10;;;10.90;45.60;;;;;;5107557;27;35534;-77
2022/04/07 01:54:17;;;;;;;1.45;1.33;;;10.90;45.20;;;;;;5125839;27;34047;-77
2022/04/07 01:56:44;;;;;;;2.08;1.38;;;10.80;45.00;;;;;;5107121;27;34044;-76
2022/04/07 01:59:10;;;;;;;1.52;1.25;;;10.90;45.80;;;;;;5107793;27;34067;-76
2022/04/07 02:01:36;;;;;;;1.45;1.30;;;10.80;45.30;;;;;;5107312;27;35794;-77
2022/04/07 02:04:03;;;;;;;1.30;1.20;;;10.80;46.50;;;;;;5107282;27;34295;-76
2022/04/07 02:06:30;;;;;;;4.30;1.20;;;10.80;47.50;;;;;;5090187;27;34358;-75
2022/04/07 02:08:56;;;;;;;1.00;1.00;;;10.80;46.70;;;;;;5125638;27;34122;-75
2022/04/07 02:11:22;;;;;;;1.30;1.20;;;10.80;46.00;;;;;;5106893;27;35578;-75
2022/04/07 02:13:49;;;;;;;1.63;1.20;;;10.80;45.70;;;;;;5125214;27;34065;-76
2022/04/07 02:16:16;;;;;;;0.70;0.70;;;10.80;45.90;;;;;;5125869;27;34360;-77
2022/04/07 02:18:42;;;;;;;1.10;1.00;;;10.80;47.30;;;;;;5106925;27;34397;-77
2022/04/07 02:21:08;;;;;;;1.02;0.90;;;10.80;46.80;;;;;;5107085;27;36261;-77
2022/04/07 02:23:41;;;;;;;1.25;1.15;;;10.80;47.20;;;;;;5107258;27;34285;-77
2022/04/07 02:26:16;;;;;;;1.98;1.25;;;10.80;46.20;;;;;;5125397;27;34350;-75
2022/04/07 02:28:42;;;;;;;1.50;1.10;;;10.90;47.20;;;;;;5089991;27;34139;-76
2022/04/07 02:31:09;;;;;;;1.73;1.15;;;10.90;46.10;;;;;;5124403;27;34917;-75
2022/04/07 02:33:35;;;;;;;1.20;1.10;;;10.90;46.10;;;;;;5107294;27;34122;-75
2022/04/07 02:36:02;;;;;;;1.35;1.02;;;10.90;46.10;;;;;;5107508;27;34213;-75
2022/04/07 02:38:28;;;;;;;2.13;1.13;;;10.90;46.30;;;;;;5106974;27;34484;-75
2022/04/07 02:40:54;;;;;;;1.63;1.02;;;10.80;46.30;;;;;;5106509;27;35886;-76
2022/04/07 02:43:20;;;;;;;1.15;1.05;;;10.80;46.80;;;;;;5106919;27;34127;-76
2022/04/07 02:45:46;;;;;;;1.42;1.30;;;10.80;46.20;;;;;;5106749;27;34147;-76
2022/04/07 02:48:12;;;;;;;1.20;1.10;;;10.80;46.40;;;;;;5107566;27;34198;-77
2022/04/07 02:50:38;;;;;;;2.05;0.90;;;10.90;46.20;;;;;;5106406;27;35693;-76
2022/04/07 02:53:04;;;;;;;4.20;1.08;;;10.80;46.50;;;;;;5106719;27;34129;-76
2022/04/07 02:55:30;;;;;;;0.90;0.90;;;10.80;46.90;;;;;;5090935;27;34290;-76
2022/04/07 02:57:59;;;;;;;0.93;0.93;;;10.80;46.20;;;;;;5089924;27;34033;-76
2022/04/07 03:00:25;;;;;;;4.00;1.35;;;10.90;46.70;;;;;;5106569;27;35970;-77
2022/04/07 03:02:51;;;;;;;4.50;1.02;;;10.90;47.50;;;;;;5124940;27;34493;-77
2022/04/07 03:05:18;;;;;;;3.10;1.08;;;10.80;46.20;;;;;;5124998;27;34279;-77
2022/04/07 03:07:44;;;;;;;2.20;1.13;;;10.90;46.10;;;;;;5124716;27;34181;-78
2022/04/07 03:10:10;;;;;;;1.20;0.85;;;10.90;45.70;;;;;;5125488;27;34389;-76
2022/04/07 03:12:37;;;;;;;1.45;1.10;;;11.00;45.90;;;;;;5106558;27;34296;-75
2022/04/07 03:15:05;;;;;;;1.42;0.93;;;11.00;45.40;;;;;;5089498;27;34118;-76
2022/04/07 03:17:33;;;;;;;1.20;0.90;;;11.00;45.30;;;;;;5125058;27;34050;-76
2022/04/07 03:20:00;;;;;;;1.40;0.80;;;11.00;45.40;;;;;;5124581;27;34860;-76
2022/04/07 03:22:26;;;;;;;1.10;0.98;;;11.00;45.50;;;;;;5106350;27;34064;-75
2022/04/07 03:24:52;;;;;;;1.50;1.00;;;11.00;45.20;;;;;;5124531;27;34058;-75
2022/04/07 03:27:18;;;;;;;3.15;1.25;;;11.00;45.40;;;;;;5106157;27;33970;-75
2022/04/07 03:29:45;;;;;;;3.55;1.08;;;11.00;45.20;;;;;;5106137;27;36276;-77
2022/04/07 03:32:11;;;;;;;2.90;1.10;;;11.00;45.30;;;;;;5106070;27;34134;-76
2022/04/07 03:34:37;;;;;;;3.05;1.30;;;11.00;45.50;;;;;;5106372;27;34373;-75
2022/04/07 03:37:05;;;;;;;3.20;1.00;;;11.00;45.30;;;;;;5124388;27;34397;-77
2022/04/07 03:39:32;;;;;;;1.20;1.10;;;11.00;45.70;;;;;;5089558;27;35840;-77
2022/04/07 03:41:58;;;;;;;2.03;1.05;;;10.90;46.00;;;;;;5124391;27;34046;-78
2022/04/07 03:44:24;;;;;;;2.58;1.17;;;10.90;45.80;;;;;;5127231;27;34149;-76
2022/04/07 03:46:50;;;;;;;2.65;1.15;;;10.90;45.80;;;;;;5092759;27;34030;-76
2022/04/07 03:49:16;;;;;;;2.83;1.05;;;10.80;46.00;;;;;;5092087;27;35828;-76
2022/04/07 03:51:42;;;;;;;1.67;1.35;;;10.80;45.70;;;;;;5092260;27;34089;-75
2022/04/07 03:54:08;;;;;;;3.67;1.20;;;10.80;46.00;;;;;;5109747;27;34120;-75
2022/04/07 03:56:34;;;;;;;1.25;1.13;;;10.80;46.00;;;;;;5128013;27;34176;-76
2022/04/07 03:59:00;;;;;;;1.20;1.10;;;10.80;46.10;;;;;;5092387;27;35820;-75
2022/04/07 04:01:27;;;;;;;3.20;1.30;;;10.80;46.60;;;;;;5109758;27;34410;-76
2022/04/07 04:03:53;;;;;;;0.82;0.82;;;10.80;46.30;;;;;;5092523;27;34132;-77
2022/04/07 04:06:19;;;;;;;2.92;1.20;;;10.70;46.70;;;;;;5109682;27;34518;-76
2022/04/07 04:08:46;;;;;;;1.73;0.90;;;10.70;46.50;;;;;;5109432;27;35518;-76
2022/04/07 04:11:12;;;;;;;0.60;0.60;;;10.70;46.70;;;;;;5127863;27;34086;-76
2022/04/07 04:13:39;;;;;;;0.85;0.80;;;10.70;47.30;;;;;;5109432;27;34301;-77
2022/04/07 04:16:06;;;;;;;4.20;1.20;;;10.80;49.30;;;;;;5109799;27;34130;-75
2022/04/07 04:18:32;;;;;;;1.65;0.98;;;10.70;46.50;;;;;;5109505;27;35324;-76
2022/04/07 04:20:58;;;;;;;1.55;1.00;;;10.60;47.70;;;;;;5127229;27;34039;-77
2022/04/07 04:23:24;;;;;;;1.27;0.95;;;10.60;48.00;;;;;;5092029;27;34222;-76
2022/04/07 04:25:50;;;;;;;1.13;0.88;;;10.70;46.30;;;;;;5109346;27;34365;-77
2022/04/07 04:28:16;;;;;;;1.38;1.10;;;10.70;46.90;;;;;;5108859;27;35523;-76
2022/04/07 04:30:42;;;;;;;1.85;0.80;;;10.80;45.80;;;;;;5108599;27;34197;-76
2022/04/07 04:33:08;;;;;;;2.97;1.00;;;10.80;45.90;;;;;;5127219;27;34158;-76
2022/04/07 04:35:34;;;;;;;1.92;1.08;;;10.90;45.60;;;;;;5127255;27;34384;-79
2022/04/07 04:38:00;;;;;;;1.40;0.80;;;10.90;46.20;;;;;;5108867;27;35727;-76
2022/04/07 04:40:26;;;;;;;0.95;0.73;;;10.90;46.00;;;;;;5127723;27;34066;-76
2022/04/07 04:42:52;;;;;;;1.05;0.80;;;10.90;45.40;;;;;;5127095;27;34166;-76
2022/04/07 04:45:18;;;;;;;1.50;0.80;;;11.00;45.30;;;;;;5108745;27;34470;-76
2022/04/07 04:47:44;;;;;;;1.13;0.68;;;11.00;45.20;;;;;;5091290;27;35556;-75
2022/04/07 04:50:13;;;;;;;1.48;1.00;;;11.00;45.30;;;;;;5109229;27;34131;-76
2022/04/07 04:52:39;;;;;;;1.35;0.75;;;11.00;45.30;;;;;;5126651;27;34054;-76
2022/04/07 04:55:05;;;;;;;0.93;0.65;;;11.00;45.20;;;;;;5108824;27;34481;-77
2022/04/07 04:57:31;;;;;;;0.60;0.60;;;11.00;45.60;;;;;;5091473;27;35677;-77
2022/04/07 04:59:57;;;;;;;0.77;0.70;;;11.00;45.30;;;;;;5108567;27;34013;-77
2022/04/07 05:02:23;;;;;;;1.67;0.80;;;10.80;46.60;;;;;;5108394;27;34084;-78
2022/04/07 05:04:49;;;;;;;2.15;0.50;;;10.90;46.30;;;;;;5091275;27;34136;-76
2022/04/07 05:07:15;;;;;;;1.13;0.68;;;10.80;46.30;;;;;;5091715;27;35963;-77
2022/04/07 05:09:41;;;;;;;0.60;0.60;;;10.90;46.10;;;;;;5108564;27;34068;-76
2022/04/07 05:12:07;;;;;;;1.95;0.90;;;10.90;45.80;;;;;;5074784;27;34273;-75
2022/04/07 05:14:33;;;;;;;0.90;0.90;;;10.90;46.00;;;;;;5091488;27;34043;-76
2022/04/07 05:16:59;;;;;;;0.77;0.63;;;10.90;46.00;;;;;;5108372;27;35983;-78
2022/04/07 05:19:26;;;;;;;1.02;0.68;;;10.90;46.00;;;;;;5126658;27;34220;-77
2022/04/07 05:21:52;;;;;;;1.25;0.60;;;10.90;46.30;;;;;;5091471;27;34144;-76
2022/04/07 05:24:18;;;;;;;2.90;0.80;;;10.90;46.00;;;;;;5091783;27;34204;-79
2022/04/07 05:26:46;;;;;;;1.90;0.82;;;10.90;47.00;;;;;;5125864;27;34428;-76
2022/04/07 05:29:12;;;;;;;0.70;0.70;;;10.80;48.80;;;;;;5108204;27;34046;-78
2022/04/07 05:31:38;;;;;;;1.48;0.65;;;10.80;48.00;;;;;;5107782;27;34488;-77
2022/04/07 05:34:04;;;;;;;1.65;0.70;;;10.70;48.60;;;;;;5074237;27;34498;-76
2022/04/07 05:36:31;;;;;;;0.50;0.50;;;10.80;47.00;;;;;;5108243;27;36463;-78
2022/04/07 05:38:57;;;;;;;0.63;0.60;;;10.70;48.00;;;;;;5126844;27;34145;-77
2022/04/07 05:41:23;;;;;;;2.67;0.93;;;10.70;47.60;;;;;;5107742;27;34137;-76
2022/04/07 05:43:49;;;;;;;0.50;0.50;;;10.70;47.40;;;;;;5107542;27;34416;-78
2022/04/07 05:46:15;;;;;;;0.43;0.43;;;10.70;48.30;;;;;;5090328;27;35789;-77
2022/04/07 05:48:41;;;;;;;0.65;0.50;;;10.70;48.00;;;;;;5126644;27;34152;-78
2022/04/07 05:51:07;;;;;;;1.02;0.55;;;10.70;48.50;;;;;;5108372;27;34219;-78
2022/04/07 05:53:33;;;;;;;0.82;0.40;;;10.70;47.80;;;;;;5107904;27;34423;-76
2022/04/07 05:55:59;;;;;;;0.90;0.50;;;10.70;48.00;;;;;;5125706;27;34197;-78
2022/04/07 05:58:25;;;;;;;0.40;0.40;;;10.70;47.80;;;;;;5106986;27;34167;-77
2022/04/07 06:00:52;;;;;;;2.47;0.40;;;10.70;47.70;;;;;;5107621;27;34187;-79
2022/04/07 06:03:18;;;;;;;2.17;0.60;;;10.60;48.00;;;;;;5108040;27;34575;-78
2022/04/07 06:05:44;;;;;;;2.45;0.40;;;10.60;48.00;;;;;;5124775;27;35461;-76
2022/04/07 06:08:10;;;;;;;2.08;0.50;;;10.60;47.80;;;;;;5090748;27;34490;-76
2022/04/07 06:10:36;;;;;;;0.30;0.30;;;10.70;47.70;;;;;;5107587;27;34504;-79
2022/04/07 06:13:02;;;;;;;0.68;0.47;;;10.60;48.10;;;;;;5107779;27;34599;-78
2022/04/07 06:15:29;;;;;;;0.65;0.60;;;10.50;48.90;;;;;;5108767;27;34468;-78
2022/04/07 06:17:56;;;;;;;0.95;0.63;;;10.60;49.40;;;;;;5090999;27;34086;-77
2022/04/07 06:20:22;;;;;;;1.23;0.38;;;10.60;49.30;;;;;;5090727;27;34197;-77
2022/04/07 06:22:48;;;;;;;0.55;0.55;;;10.60;48.60;;;;;;5126000;27;34150;-80
2022/04/07 06:25:14;;;;;;;1.77;0.40;;;10.50;50.50;;;;;;5107194;27;35833;-77
2022/04/07 06:27:43;;;;;;;0.43;0.40;;;10.60;48.60;;;;;;5108010;27;34197;-78
2022/04/07 06:30:13;;;;;;;0.50;0.50;;;10.60;50.20;;;;;;5107491;27;34171;-78
2022/04/07 06:32:40;;;;;;;1.02;0.32;;;10.60;49.60;;;;;;5107867;27;34049;-77
2022/04/07 06:35:08;;;;;;;3.53;0.98;;;10.60;49.20;;;;;;5090297;27;36023;-78
2022/04/07 06:37:52;;;;;;;0.38;0.28;;;10.60;49.80;;;;;;5107476;27;34065;-77
2022/04/07 06:40:21;;;;;;;0.63;0.40;;;10.70;53.40;;;;;;5107964;27;34715;-79
2022/04/07 06:42:48;;;;;;;0.63;0.30;;;10.60;50.20;;;;;;5090662;27;34098;-79
2022/04/07 06:45:14;;;;;;;0.50;0.50;;;10.70;49.70;;;;;;5106940;27;37112;-77
2022/04/07 06:47:41;;;;;;;0.30;0.30;;;10.70;50.80;;;;;;5108035;27;34319;-77
2022/04/07 06:50:10;;;;;;;0.40;0.40;;;10.70;52.20;;;;;;5107781;27;33998;-78
2022/04/07 06:52:36;;;;;;;0.50;0.40;;;10.70;50.90;;;;;;5107522;27;34610;-77
2022/04/07 06:55:04;;;;;;;0.63;0.40;;;10.80;50.30;;;;;;5107076;27;34362;-77
2022/04/07 06:57:29;;;;;;;0.75;0.57;;;10.70;52.20;;;;;;5069154;28;34451;-77
2022/04/07 06:59:56;;;;;;;1.23;0.45;;;10.80;51.70;;;;;;5104753;27;34664;-76
2022/04/07 07:02:23;;;;;;;1.08;0.40;;;10.80;52.20;;;;;;5089780;27;34553;-76
2022/04/07 07:04:49;;;;;;;0.63;0.30;;;10.90;50.60;;;;;;5105994;27;35744;-77
2022/04/07 07:07:16;;;;;;;0.55;0.40;;;11.00;50.50;;;;;;5106363;27;34385;-76
2022/04/07 07:09:42;;;;;;;2.65;0.50;;;10.90;50.60;;;;;;5107485;27;34224;-77
2022/04/07 07:12:08;;;;;;;0.93;0.50;;;10.90;54.20;;;;;;5104786;27;34234;-77
2022/04/07 07:14:35;;;;;;;0.43;0.43;;;11.00;50.90;;;;;;5085912;28;36563;-77
2022/04/07 07:17:01;;;;;;;1.27;0.22;;;11.10;51.00;;;;;;5093700;27;34470;-77
2022/04/07 07:19:28;;;;;;;0.30;0.30;;;11.00;51.50;;;;;;5092009;27;34332;-76
2022/04/07 07:21:55;;;;;;;0.30;0.30;;;11.10;50.40;;;;;;5110355;27;34190;-77
2022/04/07 07:24:21;;;;;;;5.45;0.50;;;11.20;51.10;;;;;;5110085;27;36610;-77
2022/04/07 07:26:46;;;;;;;0.20;0.20;;;11.30;50.80;;;;;;5109432;27;34247;-77
2022/04/07 07:29:12;;;;;;;0.55;0.20;;;11.30;50.50;;;;;;5109795;27;34092;-77
2022/04/07 07:31:38;;;;;;;0.20;0.20;;;11.30;50.60;;;;;;5109597;27;34393;-78
2022/04/07 07:34:04;;;;;;;0.30;0.30;;;11.30;51.50;;;;;;5109494;27;36072;-77
2022/04/07 07:36:31;;;;;;;0.40;0.40;;;11.40;50.50;;;;;;5110784;27;34293;-77
2022/04/07 07:38:57;;;;;;;1.58;0.32;;;11.40;50.80;;;;;;5109556;27;33981;-77
2022/04/07 07:41:23;;;;;;;0.30;0.30;;;11.40;52.70;;;;;;5109993;27;34339;-77
2022/04/07 07:43:50;;;;;;;0.20;0.20;;;11.50;51.30;;;;;;5108608;27;36206;-77
2022/04/07 07:46:16;;;;;;;1.00;0.30;;;11.50;51.10;;;;;;5092105;27;34180;-76
2022/04/07 07:48:43;;;;;;;0.20;0.20;;;11.60;51.00;;;;;;5110277;27;34176;-79
2022/04/07 07:51:09;;;;;;;0.40;0.20;;;11.60;51.20;;;;;;5109715;27;34372;-77
2022/04/07 07:53:35;;;;;;;0.30;0.30;;;11.60;51.50;;;;;;5109418;27;35808;-78
2022/04/07 07:56:01;;;;;;;0.68;0.40;;;11.60;52.30;;;;;;5128143;27;34242;-77
2022/04/07 07:58:27;;;;;;;1.08;0.45;;;11.60;51.90;;;;;;5109935;27;34162;-78
2022/04/07 08:00:54;;;;;;;0.65;0.30;;;11.60;51.60;;;;;;5128006;27;34232;-77
2022/04/07 08:03:38;;;;;;;1.17;0.20;;;11.70;51.90;;;;;;5128076;27;34337;-78
2022/04/07 08:06:09;;;;;;;0.30;0.30;;;11.70;52.40;;;;;;5109627;27;34201;-76
2022/04/07 08:08:35;;;;;;;0.30;0.30;;;11.80;52.20;;;;;;5076019;27;34386;-77
2022/04/07 08:11:01;;;;;;;2.70;0.57;;;11.80;54.90;;;;;;5092128;27;34520;-77
2022/04/07 08:13:27;;;;;;;0.22;0.22;;;11.80;52.10;;;;;;5063705;28;35839;-76
2022/04/07 08:15:53;;;;;;;0.22;0.22;;;11.80;51.90;;;;;;5089964;27;34491;-79
2022/04/07 08:18:19;;;;;;;1.98;0.40;;;11.80;52.30;;;;;;5103085;28;34272;-77
2022/04/07 08:20:45;;;;;;;0.30;0.30;;;11.80;52.30;;;;;;5123136;27;34350;-76
2022/04/07 08:23:12;;;;;;;0.63;0.30;;;11.80;52.20;;;;;;5117014;27;35496;-77
2022/04/07 08:25:38;;;;;;;0.20;0.20;;;11.80;54.00;;;;;;5072372;28;34154;-78
2022/04/07 08:28:04;;;;;;;0.50;0.50;;;11.80;53.70;;;;;;5071663;28;34381;-77
2022/04/07 08:30:34;;;;;;;0.20;0.20;;;11.90;52.70;;;;;;5071296;28;34073;-77
2022/04/07 08:33:01;;;;;;;0.50;0.50;;;11.90;52.80;;;;;;5071297;28;35570;-77
2022/04/07 08:35:27;;;;;;;0.73;0.43;;;12.00;53.10;;;;;;5091550;27;34168;-75
2022/04/07 08:37:53;;;;;;;0.40;0.40;;;12.00;52.40;;;;;;5108670;27;34254;-76
2022/04/07 08:40:21;;;;;;;0.30;0.30;;;12.00;53.20;;;;;;5108949;27;34423;-76
2022/04/07 08:42:48;;;;;;;0.30;0.30;;;12.00;52.30;;;;;;5109072;27;34520;-78
2022/04/07 08:45:14;;;;;;;0.30;0.30;;;12.10;53.40;;;;;;5109144;27;34326;-76
2022/04/07 08:47:41;;;;;;;0.30;0.30;;;12.10;52.20;;;;;;5109118;27;34135;-77
2022/04/07 08:50:08;;;;;;;1.23;0.30;;;12.20;53.20;;;;;;5108822;27;34506;-78
2022/04/07 08:52:35;;;;;;;0.45;0.40;;;12.20;53.40;;;;;;5108473;27;35691;-77
2022/04/07 08:55:02;;;;;;;0.30;0.30;;;12.30;53.70;;;;;;5109196;27;34384;-77
2022/04/07 08:57:31;;;;;;;0.38;0.38;;;12.30;52.40;;;;;;5126750;27;34188;-77
2022/04/07 08:59:57;;;;;;;0.40;0.40;;;12.50;52.60;;;;;;5108759;27;34141;-77
2022/04/07 09:02:23;;;;;;;1.48;0.40;;;12.50;51.80;;;;;;5098587;28;35781;-78
2022/04/07 09:04:56;;;;;;;0.32;0.32;;;12.50;54.00;;;;;;5108154;27;34226;-77
2022/04/07 09:07:31;;;;;;;0.75;0.30;;;12.50;52.00;;;;;;5108137;27;34222;-76
2022/04/07 09:10:00;;;;;;;0.60;0.40;;;12.60;52.70;;;;;;5126262;27;34992;-77
2022/04/07 09:12:26;;;;;;;0.75;0.40;;;12.50;53.20;;;;;;5107610;27;35881;-76
2022/04/07 09:14:59;;;;;;;1.42;0.40;;;12.50;52.10;;;;;;5104894;28;33994;-77
2022/04/07 09:17:27;;;;;;;0.50;0.40;;;12.50;52.80;;;;;;5104853;28;34042;-77
2022/04/07 09:19:53;;;;;;;0.85;0.45;;;12.60;52.90;;;;;;5091551;27;34386;-77
2022/04/07 09:22:30;;;;;;;0.75;0.40;;;12.60;52.20;;;;;;5106438;27;36066;-76
2022/04/07 09:24:58;;;;;;;3.40;1.10;;;12.70;53.90;;;;;;5116992;27;34548;-76
2022/04/07 09:27:24;;;;;;;1.27;0.50;;;12.70;54.00;;;;;;5087915;28;34141;-77
2022/04/07 09:29:55;;;;;;;0.57;0.40;;;12.70;53.00;;;;;;5079686;27;34073;-78
2022/04/07 09:32:23;;;;;;;5.88;1.60;;;12.70;54.70;;;;;;5090561;27;35609;-77
2022/04/07 09:34:54;;;;;;;1.10;0.60;;;12.70;52.90;;;;;;5108257;27;33964;-78
2022/04/07 09:37:21;;;;;;;0.70;0.70;;;12.60;54.80;;;;;;5107827;27;34289;-75
2022/04/07 09:39:49;;;;;;;12.05;4.07;;;12.70;52.60;;;;;;5091208;27;34249;-77
2022/04/07 09:42:20;;;;;;;1.02;0.73;;;12.70;52.80;;;;;;5106496;27;36865;-77
2022/04/07 09:44:51;;;;;;;2.97;1.30;;;12.70;53.00;;;;;;5090493;27;34262;-77
2022/04/07 09:47:18;;;;;;;1.75;0.60;;;12.80;54.40;;;;;;5088159;27;34211;-77
2022/04/07 09:49:44;;;;;;;0.63;0.60;;;12.70;53.30;;;;;;5087347;28;34258;-77
2022/04/07 09:52:11;;;;;;;0.30;0.30;;;12.70;53.30;;;;;;5070714;28;36292;-78
2022/04/07 09:54:41;;;;;;;0.65;0.55;;;12.70;53.30;;;;;;5090792;27;34088;-77
2022/04/07 09:57:09;;;;;;;2.35;1.35;;;12.70;53.90;;;;;;5091047;27;34407;-76
2022/04/07 09:59:39;;;;;;;0.40;0.30;;;12.80;53.20;;;;;;5090915;27;34063;-77
2022/04/07 10:02:06;;;;;;;0.73;0.60;;;12.80;54.20;;;;;;5090200;27;35677;-78
2022/04/07 10:04:34;;;;;;;0.30;0.30;;;12.90;53.00;;;;;;5107491;27;34165;-76
2022/04/07 10:07:04;;;;;;;0.20;0.20;;;12.90;52.90;;;;;;5107267;27;34117;-77
2022/04/07 10:09:31;;;;;;;0.43;0.40;;;13.00;53.20;;;;;;5108249;27;34028;-76
2022/04/07 10:11:59;;;;;;;3.38;0.50;;;13.00;52.60;;;;;;5107609;27;34145;-76
2022/04/07 10:14:28;;;;;;;0.45;0.40;;;13.10;52.50;;;;;;5125401;27;34073;-77
2022/04/07 10:16:54;;;;;;;0.30;0.30;;;13.10;52.90;;;;;;5125603;27;34184;-77
2022/04/07 10:19:29;;;;;;;0.55;0.40;;;13.10;52.60;;;;;;5125742;27;34197;-77
2022/04/07 10:22:16;;;;;;;0.65;0.30;;;13.10;52.90;;;;;;5106700;27;36525;-76
2022/04/07 10:24:47;;;;;;;0.85;0.80;;;13.30;54.20;;;;;;5090551;27;34186;-77
2022/04/07 10:27:18;;;;;;;0.38;0.30;;;13.50;53.80;;;;;;5091448;27;34088;-78
2022/04/07 10:30:03;;;;;;;0.63;0.38;;;13.50;53.00;;;;;;5091043;27;34374;-77
2022/04/07 10:32:46;;;;;;;0.60;0.20;;;13.60;54.20;;;;;;5106505;27;35644;-77
2022/04/07 10:35:37;;;;;;;0.35;0.20;;;13.60;54.00;;;;;;5107577;27;34158;-76
2022/04/07 10:38:06;;;;;;;2.30;0.38;;;13.60;54.80;;;;;;5075081;27;34215;-77
2022/04/07 10:40:49;;;;;;;0.43;0.20;;;13.50;53.00;;;;;;5091106;27;33992;-78
2022/04/07 10:43:20;;;;;;;0.43;0.43;;;13.40;53.10;;;;;;5107129;27;36649;-78
2022/04/07 10:46:09;;;;;;;1.00;0.30;;;13.50;53.50;;;;;;5106084;27;34138;-76
2022/04/07 10:48:37;;;;;;;0.20;0.20;;;13.40;54.50;;;;;;5090181;27;34213;-77
2022/04/07 10:51:07;;;;;;;0.30;0.20;;;13.30;52.80;;;;;;5107642;27;34348;-77
2022/04/07 10:53:39;;;;;;;0.38;0.32;;;13.30;54.10;;;;;;5090310;27;35974;-78
2022/04/07 10:56:08;;;;;;;0.22;0.22;;;13.40;54.80;;;;;;5125005;27;34213;-76
2022/04/07 10:58:51;;;;;;;0.50;0.47;;;13.50;53.50;;;;;;5090093;27;34102;-77
2022/04/07 11:01:53;;;;;;;0.20;0.20;;;13.50;54.80;;;;;;5125235;27;34096;-77
2022/04/07 11:04:36;;;;;;;0.30;0.30;;;13.40;55.30;;;;;;5110573;27;34234;-78
2022/04/07 11:07:15;;;;;;;0.20;0.20;;;13.50;55.80;;;;;;5090358;27;34128;-78
2022/04/07 11:09:52;;;;;;;0.38;0.30;;;13.50;55.90;;;;;;5107291;27;33831;-79
2022/04/07 11:12:34;;;;;;;0.30;0.30;;;13.50;53.70;;;;;;5106418;27;34296;-76
2022/04/07 11:15:34;;;;;;;0.20;0.20;;;13.60;54.70;;;;;;5105794;27;35689;-76
2022/04/07 11:18:13;;;;;;;0.55;0.30;;;13.60;55.20;;;;;;5106271;27;34126;-76
2022/04/07 11:21:01;;;;;;;2.60;1.00;;;13.70;53.30;;;;;;5107062;27;34374;-76
2022/04/07 11:23:43;;;;;;;0.30;0.30;;;13.70;55.00;;;;;;5093199;27;33971;-77
2022/04/07 11:26:11;;;;;;;1.17;0.47;;;13.50;55.30;;;;;;5106327;27;36132;-76
2022/04/07 11:28:37;;;;;;;0.65;0.35;;;13.50;54.40;;;;;;5090179;27;34300;-77
2022/04/07 11:31:05;;;;;;;0.80;0.30;;;13.40;55.20;;;;;;5088719;27;34159;-76
2022/04/07 11:33:39;;;;;;;0.68;0.50;;;13.40;53.90;;;;;;5072530;27;34077;-76
2022/04/07 11:36:14;;;;;;;1.13;0.20;;;13.40;55.60;;;;;;5088972;27;35630;-75
2022/04/07 11:38:46;;;;;;;0.60;0.47;;;13.50;55.80;;;;;;5089695;27;34013;-76
2022/04/07 11:41:14;;;;;;;1.30;0.60;;;13.50;55.00;;;;;;5124870;27;34155;-75
2022/04/07 11:43:43;;;;;;;0.80;0.38;;;13.50;53.30;;;;;;5105947;27;34215;-76
2022/04/07 11:46:10;;;;;;;7.93;4.05;;;13.60;53.60;;;;;;5089342;27;35996;-76
2022/04/07 11:48:38;;;;;;;0.75;0.40;;;13.60;53.40;;;;;;5088827;27;34310;-76
2022/04/07 11:51:14;;;;;;;0.40;0.40;;;13.60;53.10;;;;;;5124235;27;34049;-75
2022/04/07 11:53:41;;;;;;;0.52;0.38;;;13.60;53.00;;;;;;5105786;27;34052;-76
2022/04/07 11:56:17;;;;;;;0.20;0.20;;;13.60;52.90;;;;;;5105785;27;35907;-76
2022/04/07 11:58:49;;;;;;;1.52;0.40;;;13.60;52.90;;;;;;5105529;27;34173;-75
2022/04/07 12:01:15;;;;;;;0.50;0.50;;;13.80;52.10;;;;;;5124036;27;34128;-76
2022/04/07 12:03:41;;;;;;;0.17;0.17;;;13.90;52.10;;;;;;5124047;27;34336;-78
2022/04/07 12:06:09;;;;;;;2.30;0.20;;;14.00;51.60;;;;;;5109881;27;34335;-76
2022/04/07 12:08:35;;;;;;;0.30;0.30;;;14.20;51.30;;;;;;5109173;27;34253;-75
2022/04/07 12:11:03;;;;;;;0.43;0.20;;;14.30;50.90;;;;;;5109708;27;34582;-76
2022/04/07 12:13:29;;;;;;;0.95;0.30;;;14.50;50.10;;;;;;5093428;27;34349;-77
2022/04/07 12:15:55;;;;;;;1.58;0.40;;;14.70;48.70;;;;;;5091993;27;35693;-76
2022/04/07 12:18:30;;;;;;;0.85;0.28;;;14.70;48.10;;;;;;5128978;27;33973;-76
2022/04/07 12:21:02;;;;;;;1.23;0.28;;;14.70;42.80;;;;;;5092942;27;33959;-77
2022/04/07 12:23:29;;;;;;;0.30;0.20;;;14.80;43.40;;;;;;5110541;27;34199;-77
2022/04/07 12:25:59;;;;;;;0.65;0.35;;;15.00;45.00;;;;;;5127137;27;34923;-78
2022/04/07 12:28:38;;;;;;;0.38;0.38;;;14.90;37.00;;;;;;5109187;27;34301;-78
2022/04/07 12:31:11;;;;;;;4.50;0.57;;;15.10;37.90;;;;;;5087932;28;34443;-76
2022/04/07 12:33:46;;;;;;;0.70;0.40;;;15.10;39.90;;;;;;5090106;28;34243;-77
2022/04/07 12:36:16;;;;;;;0.68;0.50;;;15.10;38.60;;;;;;5072136;28;35553;-77
2022/04/07 12:38:59;;;;;;;0.40;0.22;;;15.20;38.10;;;;;;5073152;28;34229;-77
2022/04/07 12:41:37;;;;;;;1.15;0.20;;;15.20;31.60;;;;;;5072925;28;34117;-78
2022/04/07 12:44:04;;;;;;;0.50;0.45;;;15.40;34.70;;;;;;5089080;28;34143;-78
2022/04/07 12:46:51;;;;;;;1.60;0.35;;;15.50;41.20;;;;;;5088185;28;36286;-79
2022/04/07 12:49:32;;;;;;;1.30;0.60;;;15.60;35.00;;;;;;5090047;28;34265;-78
2022/04/07 12:52:11;;;;;;;2.35;0.40;;;15.50;33.10;;;;;;5089553;27;34434;-79
2022/04/07 12:54:54;;;;;;;0.40;0.40;;;15.60;37.10;;;;;;5090256;28;34196;-78